sensor_id;sensor_type;location;lat;lon;timestamp;pressure;altitude;pressure_sealevel;temperature;humidity
6136;BME280;24008;42.664;23.372;2023-08-07T00:01:02;94187.06;;;16.25;93.42
6136;BME280;24008;42.664;23.372;2023-08-07T00:03:29;94213.16;;;16.43;93.80
6136;BME280;24008;42.664;23.372;2023-08-07T00:05:57;94205.81;;;16.40;94.99
6136;BME280;24008;42.664;23.372;2023-08-07T00:08:23;94211.78;;;16.41;95.78
6136;BME280;24008;42.664;23.372;2023-08-07T00:10:50;94188.41;;;16.21;96.41
6136;BME280;24008;42.664;23.372;2023-08-07T00:13:17;94216.25;;;16.32;97.00
6136;BME280;24008;42.664;23.372;2023-08-07T00:15:44;94220.56;;;16.25;97.40
6136;BME280;24008;42.664;23.372;2023-08-07T00:18:11;94195.47;;;16.06;97.41
6136;BME280;24008;42.664;23.372;2023-08-07T00:20:38;94215.19;;;16.20;98.27
6136;BME280;24008;42.664;23.372;2023-08-07T00:23:06;94213.97;;;16.16;99.08
6136;BME280;24008;42.664;23.372;2023-08-07T00:25:33;94207.59;;;16.12;98.76
6136;BME280;24008;42.664;23.372;2023-08-07T00:27:59;94208.56;;;16.11;97.76
6136;BME280;24008;42.664;23.372;2023-08-07T00:30:26;94211.00;;;16.19;95.72
6136;BME280;24008;42.664;23.372;2023-08-07T00:32:53;94196.94;;;15.94;94.66
6136;BME280;24008;42.664;23.372;2023-08-07T00:35:20;94212.13;;;16.38;92.67
6136;BME280;24008;42.664;23.372;2023-08-07T00:37:47;94196.59;;;16.31;91.59
6136;BME280;24008;42.664;23.372;2023-08-07T00:40:16;94210.97;;;16.40;90.89
6136;BME280;24008;42.664;23.372;2023-08-07T00:42:43;94194.28;;;16.36;90.23
6136;BME280;24008;42.664;23.372;2023-08-07T00:45:10;94234.13;;;16.62;89.38
6136;BME280;24008;42.664;23.372;2023-08-07T00:47:37;94152.72;;;16.18;88.56
6136;BME280;24008;42.664;23.372;2023-08-07T00:50:05;94242.91;;;16.67;88.38
6136;BME280;24008;42.664;23.372;2023-08-07T00:52:32;94238.94;;;16.65;88.45
6136;BME280;24008;42.664;23.372;2023-08-07T00:54:59;94235.94;;;16.68;88.33
6136;BME280;24008;42.664;23.372;2023-08-07T00:57:28;94243.13;;;16.66;88.56
6136;BME280;24008;42.664;23.372;2023-08-07T00:59:54;94230.09;;;16.52;88.77
6136;BME280;24008;42.664;23.372;2023-08-07T01:02:21;94252.19;;;16.62;88.00
6136;BME280;24008;42.664;23.372;2023-08-07T01:04:49;94255.13;;;16.58;89.00
6136;BME280;24008;42.664;23.372;2023-08-07T01:07:16;94234.75;;;16.42;89.20
6136;BME280;24008;42.664;23.372;2023-08-07T01:09:43;94264.22;;;16.54;89.97
6136;BME280;24008;42.664;23.372;2023-08-07T01:12:15;94272.75;;;16.55;90.35
6136;BME280;24008;42.664;23.372;2023-08-07T01:14:50;94264.97;;;16.48;91.35
6136;BME280;24008;42.664;23.372;2023-08-07T01:17:20;94267.72;;;16.40;92.16
6136;BME280;24008;42.664;23.372;2023-08-07T01:19:49;94242.53;;;16.14;92.60
6136;BME280;24008;42.664;23.372;2023-08-07T01:22:18;94272.38;;;16.30;92.68
6136;BME280;24008;42.664;23.372;2023-08-07T01:24:47;94253.81;;;16.13;93.04
6136;BME280;24008;42.664;23.372;2023-08-07T01:27:30;94271.16;;;16.26;93.46
6136;BME280;24008;42.664;23.372;2023-08-07T01:30:07;94272.53;;;16.22;93.29
6136;BME280;24008;42.664;23.372;2023-08-07T01:32:41;94217.25;;;15.82;93.12
6136;BME280;24008;42.664;23.372;2023-08-07T01:35:12;94266.75;;;16.20;93.05
6136;BME280;24008;42.664;23.372;2023-08-07T01:37:42;94266.38;;;16.23;93.16
6136;BME280;24008;42.664;23.372;2023-08-07T01:40:10;94261.00;;;16.18;93.26
6136;BME280;24008;42.664;23.372;2023-08-07T01:42:38;94257.19;;;16.14;93.58
6136;BME280;24008;42.664;23.372;2023-08-07T01:45:06;94244.84;;;16.09;93.46
6136;BME280;24008;42.664;23.372;2023-08-07T01:47:32;94240.00;;;16.00;94.10
6136;BME280;24008;42.664;23.372;2023-08-07T01:50:00;94251.16;;;16.07;94.01
6136;BME280;24008;42.664;23.372;2023-08-07T01:52:27;94252.94;;;16.06;94.12
6136;BME280;24008;42.664;23.372;2023-08-07T01:54:55;94233.22;;;15.92;94.85
6136;BME280;24008;42.664;23.372;2023-08-07T01:57:22;94258.09;;;16.06;95.41
6136;BME280;24008;42.664;23.372;2023-08-07T01:59:49;94158.53;;;15.35;95.61
6136;BME280;24008;42.664;23.372;2023-08-07T02:02:16;94253.56;;;15.87;96.17
6136;BME280;24008;42.664;23.372;2023-08-07T02:04:42;94243.31;;;15.72;95.89
6136;BME280;24008;42.664;23.372;2023-08-07T02:07:09;94217.25;;;15.61;96.19
6136;BME280;24008;42.664;23.372;2023-08-07T02:09:36;94252.13;;;15.78;96.77
6136;BME280;24008;42.664;23.372;2023-08-07T02:12:05;94274.81;;;15.89;96.70
6136;BME280;24008;42.664;23.372;2023-08-07T02:14:33;94278.72;;;15.85;96.95
6136;BME280;24008;42.664;23.372;2023-08-07T02:17:00;94245.19;;;15.57;97.32
6136;BME280;24008;42.664;23.372;2023-08-07T02:19:26;94286.22;;;15.80;98.02
6136;BME280;24008;42.664;23.372;2023-08-07T02:21:53;94281.25;;;15.78;97.73
6136;BME280;24008;42.664;23.372;2023-08-07T02:24:20;94294.13;;;15.78;98.29
6136;BME280;24008;42.664;23.372;2023-08-07T02:26:47;94289.34;;;15.75;98.88
6136;BME280;24008;42.664;23.372;2023-08-07T02:29:15;94293.25;;;15.71;99.18
6136;BME280;24008;42.664;23.372;2023-08-07T02:31:42;94266.28;;;15.53;98.98
6136;BME280;24008;42.664;23.372;2023-08-07T02:34:08;94300.41;;;15.69;99.65
6136;BME280;24008;42.664;23.372;2023-08-07T02:36:35;94295.59;;;15.66;99.67
6136;BME280;24008;42.664;23.372;2023-08-07T02:39:02;94264.88;;;15.50;99.54
6136;BME280;24008;42.664;23.372;2023-08-07T02:41:30;94226.75;;;15.24;99.26
6136;BME280;24008;42.664;23.372;2023-08-07T02:43:57;94271.63;;;15.51;100.00
6136;BME280;24008;42.664;23.372;2023-08-07T02:46:25;94259.22;;;15.40;100.00
6136;BME280;24008;42.664;23.372;2023-08-07T02:48:52;94299.50;;;15.62;100.00
6136;BME280;24008;42.664;23.372;2023-08-07T02:51:20;94214.53;;;15.11;100.00
6136;BME280;24008;42.664;23.372;2023-08-07T02:53:47;94295.34;;;15.61;100.00
6136;BME280;24008;42.664;23.372;2023-08-07T02:56:13;94308.56;;;15.58;100.00
6136;BME280;24008;42.664;23.372;2023-08-07T02:58:40;94301.84;;;15.57;100.00
6136;BME280;24008;42.664;23.372;2023-08-07T03:01:07;94260.72;;;15.34;100.00
6136;BME280;24008;42.664;23.372;2023-08-07T03:03:36;94230.16;;;15.10;100.00
6136;BME280;24008;42.664;23.372;2023-08-07T03:06:03;94273.41;;;15.36;100.00
6136;BME280;24008;42.664;23.372;2023-08-07T03:08:30;94311.75;;;15.60;100.00
6136;BME280;24008;42.664;23.372;2023-08-07T03:10:57;94315.94;;;15.61;100.00
6136;BME280;24008;42.664;23.372;2023-08-07T03:13:25;94287.06;;;15.51;100.00
6136;BME280;24008;42.664;23.372;2023-08-07T03:15:58;94273.88;;;15.39;100.00
6136;BME280;24008;42.664;23.372;2023-08-07T03:18:25;94300.44;;;15.55;100.00
6136;BME280;24008;42.664;23.372;2023-08-07T03:20:53;94309.75;;;15.56;100.00
6136;BME280;24008;42.664;23.372;2023-08-07T03:23:20;94260.41;;;15.23;100.00
6136;BME280;24008;42.664;23.372;2023-08-07T03:25:47;94323.50;;;15.63;100.00
6136;BME280;24008;42.664;23.372;2023-08-07T03:28:13;94335.66;;;15.69;100.00
6136;BME280;24008;42.664;23.372;2023-08-07T03:30:40;94245.34;;;15.05;100.00
6136;BME280;24008;42.664;23.372;2023-08-07T03:33:07;94316.69;;;15.55;100.00
6136;BME280;24008;42.664;23.372;2023-08-07T03:35:34;94337.22;;;15.70;100.00
6136;BME280;24008;42.664;23.372;2023-08-07T03:38:02;94320.91;;;15.63;99.96
6136;BME280;24008;42.664;23.372;2023-08-07T03:40:29;94327.22;;;15.60;99.09
6136;BME280;24008;42.664;23.372;2023-08-07T03:42:56;94358.13;;;15.75;98.49
6136;BME280;24008;42.664;23.372;2023-08-07T03:45:22;94354.75;;;15.74;99.25
6136;BME280;24008;42.664;23.372;2023-08-07T03:47:49;94355.72;;;15.73;98.89
6136;BME280;24008;42.664;23.372;2023-08-07T03:50:16;94357.50;;;15.73;98.36
6136;BME280;24008;42.664;23.372;2023-08-07T03:52:43;94354.38;;;15.77;98.22
6136;BME280;24008;42.664;23.372;2023-08-07T03:55:11;94361.13;;;15.78;98.60
6136;BME280;24008;42.664;23.372;2023-08-07T03:57:37;94334.25;;;15.66;97.11
6136;BME280;24008;42.664;23.372;2023-08-07T04:00:05;94359.78;;;15.82;96.33
6136;BME280;24008;42.664;23.372;2023-08-07T04:02:32;94351.81;;;15.77;95.83
6136;BME280;24008;42.664;23.372;2023-08-07T04:04:59;94365.94;;;15.81;95.39
6136;BME280;24008;42.664;23.372;2023-08-07T04:07:26;94373.09;;;15.86;94.73
6136;BME280;24008;42.664;23.372;2023-08-07T04:09:53;94383.50;;;15.93;94.39
6136;BME280;24008;42.664;23.372;2023-08-07T04:12:21;94376.81;;;15.98;94.18
6136;BME280;24008;42.664;23.372;2023-08-07T04:14:48;94395.91;;;16.04;93.21
6136;BME280;24008;42.664;23.372;2023-08-07T04:17:14;94385.84;;;16.09;92.64
6136;BME280;24008;42.664;23.372;2023-08-07T04:19:41;94389.91;;;16.18;92.02
6136;BME280;24008;42.664;23.372;2023-08-07T04:22:08;94376.03;;;16.19;91.66
6136;BME280;24008;42.664;23.372;2023-08-07T04:24:34;94364.53;;;16.21;90.39
6136;BME280;24008;42.664;23.372;2023-08-07T04:27:01;94403.31;;;16.49;89.62
6136;BME280;24008;42.664;23.372;2023-08-07T04:29:29;94406.38;;;16.60;89.34
6136;BME280;24008;42.664;23.372;2023-08-07T04:31:56;94402.53;;;16.70;88.17
6136;BME280;24008;42.664;23.372;2023-08-07T04:34:23;94397.84;;;16.80;87.28
6136;BME280;24008;42.664;23.372;2023-08-07T04:36:49;94384.38;;;16.85;86.39
6136;BME280;24008;42.664;23.372;2023-08-07T04:39:20;94367.75;;;16.94;85.64
6136;BME280;24008;42.664;23.372;2023-08-07T04:41:47;94400.78;;;17.33;83.90
6136;BME280;24008;42.664;23.372;2023-08-07T04:44:15;94405.84;;;17.48;83.03
6136;BME280;24008;42.664;23.372;2023-08-07T04:46:43;94411.47;;;17.58;81.66
6136;BME280;24008;42.664;23.372;2023-08-07T04:49:10;94404.84;;;17.83;80.41
6136;BME280;24008;42.664;23.372;2023-08-07T04:51:37;94411.28;;;18.81;77.56
6136;BME280;24008;42.664;23.372;2023-08-07T04:54:03;94400.09;;;20.04;71.64
6136;BME280;24008;42.664;23.372;2023-08-07T04:56:30;94398.19;;;21.12;66.65
6136;BME280;24008;42.664;23.372;2023-08-07T04:58:57;94398.19;;;21.92;62.83
6136;BME280;24008;42.664;23.372;2023-08-07T05:01:24;94358.59;;;22.50;59.24
6136;BME280;24008;42.664;23.372;2023-08-07T05:03:54;94394.19;;;23.32;55.34
6136;BME280;24008;42.664;23.372;2023-08-07T05:06:22;94380.22;;;23.74;53.52
6136;BME280;24008;42.664;23.372;2023-08-07T05:08:49;94363.56;;;24.03;51.30
6136;BME280;24008;42.664;23.372;2023-08-07T05:11:16;94363.31;;;24.45;50.47
6136;BME280;24008;42.664;23.372;2023-08-07T05:13:43;94390.88;;;24.97;48.49
6136;BME280;24008;42.664;23.372;2023-08-07T05:16:10;94385.94;;;25.01;49.02
6136;BME280;24008;42.664;23.372;2023-08-07T05:18:36;94367.09;;;25.16;47.12
6136;BME280;24008;42.664;23.372;2023-08-07T05:21:04;94363.09;;;25.46;46.36
6136;BME280;24008;42.664;23.372;2023-08-07T05:23:34;94392.41;;;25.48;46.70
6136;BME280;24008;42.664;23.372;2023-08-07T05:26:00;94388.47;;;26.06;45.69
6136;BME280;24008;42.664;23.372;2023-08-07T05:28:27;94382.66;;;26.26;44.70
6136;BME280;24008;42.664;23.372;2023-08-07T05:30:54;94386.75;;;26.39;43.84
6136;BME280;24008;42.664;23.372;2023-08-07T05:33:21;94394.84;;;26.64;42.92
6136;BME280;24008;42.664;23.372;2023-08-07T05:35:47;94366.91;;;26.48;43.07
6136;BME280;24008;42.664;23.372;2023-08-07T05:38:16;94314.44;;;26.16;43.10
6136;BME280;24008;42.664;23.372;2023-08-07T05:40:43;94383.50;;;27.17;42.19
6136;BME280;24008;42.664;23.372;2023-08-07T05:43:10;94388.31;;;27.31;42.28
6136;BME280;24008;42.664;23.372;2023-08-07T05:45:38;94360.88;;;27.53;41.14
6136;BME280;24008;42.664;23.372;2023-08-07T05:48:05;94328.28;;;27.39;40.78
6136;BME280;24008;42.664;23.372;2023-08-07T05:50:32;94370.84;;;27.93;40.19
6136;BME280;24008;42.664;23.372;2023-08-07T05:52:59;94395.59;;;28.08;40.26
6136;BME280;24008;42.664;23.372;2023-08-07T05:55:27;94357.16;;;27.91;40.15
6136;BME280;24008;42.664;23.372;2023-08-07T05:57:54;94365.47;;;28.25;39.46
6136;BME280;24008;42.664;23.372;2023-08-07T06:00:20;94348.66;;;28.37;38.93
6136;BME280;24008;42.664;23.372;2023-08-07T06:02:47;94391.09;;;28.91;37.98
6136;BME280;24008;42.664;23.372;2023-08-07T06:05:14;94400.81;;;29.06;37.54
6136;BME280;24008;42.664;23.372;2023-08-07T06:07:41;94391.63;;;29.08;36.40
6136;BME280;24008;42.664;23.372;2023-08-07T06:10:09;94391.00;;;28.50;38.00
6136;BME280;24008;42.664;23.372;2023-08-07T06:12:37;94288.41;;;28.10;37.73
6136;BME280;24008;42.664;23.372;2023-08-07T06:15:04;94374.47;;;29.26;36.51
6136;BME280;24008;42.664;23.372;2023-08-07T06:17:31;94362.09;;;29.26;36.60
6136;BME280;24008;42.664;23.372;2023-08-07T06:19:58;94332.94;;;29.08;37.00
6136;BME280;24008;42.664;23.372;2023-08-07T06:22:25;94388.44;;;29.16;36.57
6136;BME280;24008;42.664;23.372;2023-08-07T06:24:52;94386.34;;;28.93;37.09
6136;BME280;24008;42.664;23.372;2023-08-07T06:27:21;94338.97;;;28.57;37.41
6136;BME280;24008;42.664;23.372;2023-08-07T06:29:49;94353.16;;;29.43;37.14
6136;BME280;24008;42.664;23.372;2023-08-07T06:32:15;94347.84;;;29.63;36.37
6136;BME280;24008;42.664;23.372;2023-08-07T06:34:43;94385.63;;;30.13;36.20
6136;BME280;24008;42.664;23.372;2023-08-07T06:37:11;94361.38;;;30.16;34.33
6136;BME280;24008;42.664;23.372;2023-08-07T06:39:38;94385.13;;;29.95;34.68
6136;BME280;24008;42.664;23.372;2023-08-07T06:42:05;94287.78;;;29.65;34.50
6136;BME280;24008;42.664;23.372;2023-08-07T06:44:32;94383.88;;;30.47;34.16
6136;BME280;24008;42.664;23.372;2023-08-07T06:47:00;94345.19;;;29.68;33.94
6136;BME280;24008;42.664;23.372;2023-08-07T06:49:27;94388.94;;;29.59;33.78
6136;BME280;24008;42.664;23.372;2023-08-07T06:51:54;94398.41;;;29.60;32.35
6136;BME280;24008;42.664;23.372;2023-08-07T06:54:20;94328.38;;;29.49;31.93
6136;BME280;24008;42.664;23.372;2023-08-07T06:56:47;94395.25;;;29.68;32.49
6136;BME280;24008;42.664;23.372;2023-08-07T06:59:14;94396.28;;;29.82;32.38
6136;BME280;24008;42.664;23.372;2023-08-07T07:01:41;94399.22;;;30.35;32.31
6136;BME280;24008;42.664;23.372;2023-08-07T07:04:09;94395.00;;;30.39;32.94
6136;BME280;24008;42.664;23.372;2023-08-07T07:06:37;94393.91;;;30.89;31.92
6136;BME280;24008;42.664;23.372;2023-08-07T07:09:03;94355.75;;;31.05;31.41
6136;BME280;24008;42.664;23.372;2023-08-07T07:11:30;94237.16;;;29.78;30.96
6136;BME280;24008;42.664;23.372;2023-08-07T07:13:57;94387.16;;;30.24;31.81
6136;BME280;24008;42.664;23.372;2023-08-07T07:16:24;94387.69;;;30.70;31.11
6136;BME280;24008;42.664;23.372;2023-08-07T07:18:51;94381.75;;;30.49;31.83
6136;BME280;24008;42.664;23.372;2023-08-07T07:21:19;94385.44;;;30.53;31.70
6136;BME280;24008;42.664;23.372;2023-08-07T07:23:46;94388.03;;;30.58;30.83
6136;BME280;24008;42.664;23.372;2023-08-07T07:26:13;94362.94;;;30.17;31.06
6136;BME280;24008;42.664;23.372;2023-08-07T07:28:39;94391.50;;;29.89;31.96
6136;BME280;24008;42.664;23.372;2023-08-07T07:31:06;94386.22;;;29.94;32.17
6136;BME280;24008;42.664;23.372;2023-08-07T07:33:36;94388.78;;;30.15;32.25
6136;BME280;24008;42.664;23.372;2023-08-07T07:36:04;94382.38;;;29.56;32.98
6136;BME280;24008;42.664;23.372;2023-08-07T07:38:33;94380.84;;;30.20;32.74
6136;BME280;24008;42.664;23.372;2023-08-07T07:40:59;94356.94;;;30.50;32.12
6136;BME280;24008;42.664;23.372;2023-08-07T07:43:26;94322.53;;;30.70;31.07
6136;BME280;24008;42.664;23.372;2023-08-07T07:45:53;94252.34;;;30.69;30.62
6136;BME280;24008;42.664;23.372;2023-08-07T07:48:19;94336.59;;;31.52;29.67
6136;BME280;24008;42.664;23.372;2023-08-07T07:50:46;94386.22;;;31.56;31.02
6136;BME280;24008;42.664;23.372;2023-08-07T07:53:13;94380.84;;;31.66;29.95
6136;BME280;24008;42.664;23.372;2023-08-07T07:55:46;94305.25;;;31.17;29.52
6136;BME280;24008;42.664;23.372;2023-08-07T07:58:13;94348.91;;;31.38;30.06
6136;BME280;24008;42.664;23.372;2023-08-07T08:00:40;94367.38;;;31.67;30.52
6136;BME280;24008;42.664;23.372;2023-08-07T08:03:07;94386.00;;;31.52;29.98
6136;BME280;24008;42.664;23.372;2023-08-07T08:05:34;94361.81;;;31.06;29.33
6136;BME280;24008;42.664;23.372;2023-08-07T08:08:01;94351.22;;;31.16;29.44
6136;BME280;24008;42.664;23.372;2023-08-07T08:10:28;94375.47;;;31.18;29.97
6136;BME280;24008;42.664;23.372;2023-08-07T08:12:56;94379.25;;;31.12;30.38
6136;BME280;24008;42.664;23.372;2023-08-07T08:15:23;94340.88;;;30.91;30.46
6136;BME280;24008;42.664;23.372;2023-08-07T08:17:50;94391.72;;;31.01;30.50
6136;BME280;24008;42.664;23.372;2023-08-07T08:20:17;94350.59;;;30.56;31.65
6136;BME280;24008;42.664;23.372;2023-08-07T08:22:44;94327.81;;;30.26;30.93
6136;BME280;24008;42.664;23.372;2023-08-07T08:25:11;94378.28;;;30.93;31.24
6136;BME280;24008;42.664;23.372;2023-08-07T08:27:38;94297.19;;;30.74;30.01
6136;BME280;24008;42.664;23.372;2023-08-07T08:30:07;94372.31;;;31.16;29.66
6136;BME280;24008;42.664;23.372;2023-08-07T08:32:35;94372.81;;;31.23;29.65
6136;BME280;24008;42.664;23.372;2023-08-07T08:35:02;94363.72;;;31.34;29.60
6136;BME280;24008;42.664;23.372;2023-08-07T08:37:28;94364.75;;;31.38;29.45
6136;BME280;24008;42.664;23.372;2023-08-07T08:39:55;94389.84;;;31.65;29.71
6136;BME280;24008;42.664;23.372;2023-08-07T08:42:22;94342.97;;;31.52;30.46
6136;BME280;24008;42.664;23.372;2023-08-07T08:44:52;94295.19;;;31.48;29.71
6136;BME280;24008;42.664;23.372;2023-08-07T08:47:20;94352.19;;;31.78;29.96
6136;BME280;24008;42.664;23.372;2023-08-07T08:49:50;94334.66;;;31.87;29.00
6136;BME280;24008;42.664;23.372;2023-08-07T08:52:18;94360.00;;;31.64;28.53
6136;BME280;24008;42.664;23.372;2023-08-07T08:54:46;94322.50;;;31.04;29.51
6136;BME280;24008;42.664;23.372;2023-08-07T08:57:13;94356.09;;;30.99;28.86
6136;BME280;24008;42.664;23.372;2023-08-07T08:59:41;94352.84;;;31.07;28.46
6136;BME280;24008;42.664;23.372;2023-08-07T09:02:08;94354.06;;;31.48;27.71
6136;BME280;24008;42.664;23.372;2023-08-07T09:04:37;94252.78;;;30.82;27.85
6136;BME280;24008;42.664;23.372;2023-08-07T09:07:04;94320.38;;;31.11;28.43
6136;BME280;24008;42.664;23.372;2023-08-07T09:09:31;94327.66;;;31.96;27.69
6136;BME280;24008;42.664;23.372;2023-08-07T09:11:58;94341.56;;;32.26;27.17
6136;BME280;24008;42.664;23.372;2023-08-07T09:14:27;94365.22;;;31.93;27.59
6136;BME280;24008;42.664;23.372;2023-08-07T09:16:59;94339.94;;;31.63;29.49
6136;BME280;24008;42.664;23.372;2023-08-07T09:19:27;94321.75;;;31.57;28.73
6136;BME280;24008;42.664;23.372;2023-08-07T09:21:55;94324.88;;;31.64;29.19
6136;BME280;24008;42.664;23.372;2023-08-07T09:24:22;94328.00;;;31.66;28.95
6136;BME280;24008;42.664;23.372;2023-08-07T09:26:51;94314.63;;;31.81;29.04
6136;BME280;24008;42.664;23.372;2023-08-07T09:29:18;94329.75;;;31.99;29.90
6136;BME280;24008;42.664;23.372;2023-08-07T09:31:45;94318.66;;;31.97;29.50
6136;BME280;24008;42.664;23.372;2023-08-07T09:34:12;94319.34;;;31.36;29.20
6136;BME280;24008;42.664;23.372;2023-08-07T09:36:41;94318.78;;;31.39;28.80
6136;BME280;24008;42.664;23.372;2023-08-07T09:39:10;94320.81;;;31.47;29.20
6136;BME280;24008;42.664;23.372;2023-08-07T09:41:36;94299.84;;;31.03;30.12
6136;BME280;24008;42.664;23.372;2023-08-07T09:44:06;94312.06;;;31.23;30.31
6136;BME280;24008;42.664;23.372;2023-08-07T09:46:41;94300.91;;;31.31;29.80
6136;BME280;24008;42.664;23.372;2023-08-07T09:49:08;94308.41;;;31.72;29.29
6136;BME280;24008;42.664;23.372;2023-08-07T09:51:41;94311.69;;;31.59;29.21
6136;BME280;24008;42.664;23.372;2023-08-07T09:54:10;94298.50;;;31.35;29.99
6136;BME280;24008;42.664;23.372;2023-08-07T09:56:37;94283.31;;;31.22;30.41
6136;BME280;24008;42.664;23.372;2023-08-07T09:59:04;94311.72;;;31.82;30.19
6136;BME280;24008;42.664;23.372;2023-08-07T10:01:31;94307.31;;;31.97;28.62
6136;BME280;24008;42.664;23.372;2023-08-07T10:03:58;94311.56;;;31.93;29.48
6136;BME280;24008;42.664;23.372;2023-08-07T10:06:26;94289.78;;;31.82;29.43
6136;BME280;24008;42.664;23.372;2023-08-07T10:08:54;94282.03;;;31.67;29.68
6136;BME280;24008;42.664;23.372;2023-08-07T10:11:23;94278.31;;;31.68;29.91
6136;BME280;24008;42.664;23.372;2023-08-07T10:13:50;94315.22;;;32.15;29.39
6136;BME280;24008;42.664;23.372;2023-08-07T10:16:16;94315.50;;;31.95;28.97
6136;BME280;24008;42.664;23.372;2023-08-07T10:18:43;94317.25;;;31.57;28.48
6136;BME280;24008;42.664;23.372;2023-08-07T10:21:10;94307.81;;;31.99;27.67
6136;BME280;24008;42.664;23.372;2023-08-07T10:23:38;94314.31;;;32.06;28.14
6136;BME280;24008;42.664;23.372;2023-08-07T10:26:08;94234.81;;;31.36;29.16
6136;BME280;24008;42.664;23.372;2023-08-07T10:28:39;94315.88;;;31.65;29.09
6136;BME280;24008;42.664;23.372;2023-08-07T10:31:07;94314.38;;;32.01;30.65
6136;BME280;24008;42.664;23.372;2023-08-07T10:33:36;94316.53;;;31.99;30.51
6136;BME280;24008;42.664;23.372;2023-08-07T10:36:08;94312.13;;;31.90;29.99
6136;BME280;24008;42.664;23.372;2023-08-07T10:38:35;94276.97;;;31.89;28.48
6136;BME280;24008;42.664;23.372;2023-08-07T10:41:07;94298.38;;;32.49;28.24
6136;BME280;24008;42.664;23.372;2023-08-07T10:43:39;94208.34;;;32.03;29.25
6136;BME280;24008;42.664;23.372;2023-08-07T10:46:10;94292.63;;;32.47;29.50
6136;BME280;24008;42.664;23.372;2023-08-07T10:48:41;94248.91;;;31.93;29.02
6136;BME280;24008;42.664;23.372;2023-08-07T10:51:12;94314.06;;;31.84;29.40
6136;BME280;24008;42.664;23.372;2023-08-07T10:53:40;94296.69;;;31.78;29.17
6136;BME280;24008;42.664;23.372;2023-08-07T10:56:10;94304.41;;;31.27;30.35
6136;BME280;24008;42.664;23.372;2023-08-07T10:58:40;94073.63;;;29.69;29.69
6136;BME280;24008;42.664;23.372;2023-08-07T11:01:17;94288.53;;;30.98;32.10
6136;BME280;24008;42.664;23.372;2023-08-07T11:03:48;94278.75;;;30.69;30.76
6136;BME280;24008;42.664;23.372;2023-08-07T11:06:15;94289.88;;;30.22;31.91
6136;BME280;24008;42.664;23.372;2023-08-07T11:08:42;94236.81;;;29.90;32.02
6136;BME280;24008;42.664;23.372;2023-08-07T11:11:09;94282.81;;;30.13;31.90
6136;BME280;24008;42.664;23.372;2023-08-07T11:13:36;94281.94;;;29.73;31.05
6136;BME280;24008;42.664;23.372;2023-08-07T11:16:05;94256.34;;;28.99;32.88
6136;BME280;24008;42.664;23.372;2023-08-07T11:18:32;94232.19;;;28.56;33.56
6136;BME280;24008;42.664;23.372;2023-08-07T11:21:01;94264.53;;;28.42;34.17
6136;BME280;24008;42.664;23.372;2023-08-07T11:23:28;94267.44;;;28.25;33.29
6136;BME280;24008;42.664;23.372;2023-08-07T11:25:55;94233.72;;;28.02;32.84
6136;BME280;24008;42.664;23.372;2023-08-07T11:28:22;94235.25;;;27.82;33.18
6136;BME280;24008;42.664;23.372;2023-08-07T11:30:51;94248.44;;;27.98;33.60
6136;BME280;24008;42.664;23.372;2023-08-07T11:33:23;94231.63;;;27.99;34.06
6136;BME280;24008;42.664;23.372;2023-08-07T11:35:50;94239.81;;;28.27;34.80
6136;BME280;24008;42.664;23.372;2023-08-07T11:38:29;94224.84;;;28.33;33.90
6136;BME280;24008;42.664;23.372;2023-08-07T11:40:58;94157.50;;;27.66;33.63
6136;BME280;24008;42.664;23.372;2023-08-07T11:43:27;94246.66;;;28.18;34.44
6136;BME280;24008;42.664;23.372;2023-08-07T11:45:54;94247.19;;;28.20;34.67
6136;BME280;24008;42.664;23.372;2023-08-07T11:48:25;94224.28;;;28.06;33.91
6136;BME280;24008;42.664;23.372;2023-08-07T11:50:52;94256.34;;;28.08;34.23
6136;BME280;24008;42.664;23.372;2023-08-07T11:53:19;94242.16;;;28.09;34.54
6136;BME280;24008;42.664;23.372;2023-08-07T11:55:47;94196.44;;;28.00;35.67
6136;BME280;24008;42.664;23.372;2023-08-07T11:58:17;94183.84;;;28.27;35.46
6136;BME280;24008;42.664;23.372;2023-08-07T12:00:44;94252.72;;;28.85;34.11
6136;BME280;24008;42.664;23.372;2023-08-07T12:03:26;94149.94;;;28.20;33.99
6136;BME280;24008;42.664;23.372;2023-08-07T12:05:55;94226.13;;;28.66;33.43
6136;BME280;24008;42.664;23.372;2023-08-07T12:08:22;94161.78;;;28.23;32.53
6136;BME280;24008;42.664;23.372;2023-08-07T12:10:50;94237.94;;;28.99;32.65
6136;BME280;24008;42.664;23.372;2023-08-07T12:13:20;94222.69;;;28.76;32.29
6136;BME280;24008;42.664;23.372;2023-08-07T12:15:50;94214.31;;;28.58;33.61
6136;BME280;24008;42.664;23.372;2023-08-07T12:18:18;94209.03;;;28.63;34.60
6136;BME280;24008;42.664;23.372;2023-08-07T12:20:46;94224.31;;;28.72;33.51
6136;BME280;24008;42.664;23.372;2023-08-07T12:23:14;94221.16;;;28.70;34.24
6136;BME280;24008;42.664;23.372;2023-08-07T12:25:42;94224.84;;;28.58;32.82
6136;BME280;24008;42.664;23.372;2023-08-07T12:28:09;94223.75;;;28.64;33.24
6136;BME280;24008;42.664;23.372;2023-08-07T12:30:36;94222.47;;;28.52;33.65
6136;BME280;24008;42.664;23.372;2023-08-07T12:33:03;94176.47;;;28.09;34.47
6136;BME280;24008;42.664;23.372;2023-08-07T12:35:31;94217.47;;;28.30;34.85
6136;BME280;24008;42.664;23.372;2023-08-07T12:37:59;94190.38;;;27.94;35.51
6136;BME280;24008;42.664;23.372;2023-08-07T12:40:27;94205.09;;;28.10;35.80
6136;BME280;24008;42.664;23.372;2023-08-07T12:42:53;94217.97;;;28.07;35.44
6136;BME280;24008;42.664;23.372;2023-08-07T12:45:20;94215.84;;;28.14;35.86
6136;BME280;24008;42.664;23.372;2023-08-07T12:47:47;94221.91;;;28.09;35.82
6136;BME280;24008;42.664;23.372;2023-08-07T12:50:14;94214.81;;;28.05;36.05
6136;BME280;24008;42.664;23.372;2023-08-07T12:52:41;94154.63;;;27.73;36.42
6136;BME280;24008;42.664;23.372;2023-08-07T12:55:09;94231.16;;;28.42;37.35
6136;BME280;24008;42.664;23.372;2023-08-07T12:57:37;94218.78;;;28.27;36.86
6136;BME280;24008;42.664;23.372;2023-08-07T13:00:05;94209.03;;;28.03;37.05
6136;BME280;24008;42.664;23.372;2023-08-07T13:02:33;94232.16;;;28.06;37.94